Terminal Aerodrome Forecast
Issued by NWS Albany, NY

Home | Current Version | Previous Version | Text Only | Print | Product List | Glossary On
Versions: 1 2 3 4 5 6 7 8 9 10 11 12 13 14 15 16 17 18
000
FTUS41 KALY 301121
TAFGFL
TAF
KGFL 301121Z 3012/3112 00000KT P6SM BKN100
     FM301300 17004KT P6SM BKN070
     FM302100 19006KT P6SM SCT060 SCT100
     FM310400 VRB03KT 6SM BR FEW250
     FM310700 00000KT 3SM BR SCT002=

USA.gov is the U.S. government's official web portal to all federal, state and local government web resources and services.